Aviation Digital Data Service (ADDS)

Output produced by TAFs form (1950 UTC 14 August 2018)
found at http://www.aviationweather.gov/adds/tafs/
 
KABY 141853Z AUTO 25006KT 10SM CLR 33/24 A3002 RMK AO2 SLP163 T03280239
KABY 141725Z 1418/1518 18005KT P6SM SCT040 SCT250 
     FM142100 19007KT P6SM VCTS BKN035CB BKN250 
     FM150100 21004KT P6SM BKN250 
     FM151200 14003KT P6SM SCT015 BKN050